sensor_id;sensor_type;location;lat;lon;timestamp;P1;durP1;ratioP1;P2;durP2;ratioP2
22435;SDS011;11385;50.822;4.324;2023-04-01T00:01:05;13.43;;;3.62;;
22435;SDS011;11385;50.822;4.324;2023-04-01T00:03:32;16.82;;;4.08;;
22435;SDS011;11385;50.822;4.324;2023-04-01T00:06:01;14.18;;;3.75;;
22435;SDS011;11385;50.822;4.324;2023-04-01T00:08:28;15.08;;;2.90;;
22435;SDS011;11385;50.822;4.324;2023-04-01T00:10:56;15.72;;;3.20;;
22435;SDS011;11385;50.822;4.324;2023-04-01T00:13:23;9.08;;;2.75;;
22435;SDS011;11385;50.822;4.324;2023-04-01T00:15:52;12.00;;;2.55;;
22435;SDS011;11385;50.822;4.324;2023-04-01T00:18:20;9.45;;;2.67;;
22435;SDS011;11385;50.822;4.324;2023-04-01T00:20:48;14.90;;;3.27;;
22435;SDS011;11385;50.822;4.324;2023-04-01T00:23:17;12.07;;;2.70;;
22435;SDS011;11385;50.822;4.324;2023-04-01T00:25:45;10.45;;;2.50;;
22435;SDS011;11385;50.822;4.324;2023-04-01T00:28:15;7.60;;;2.00;;
22435;SDS011;11385;50.822;4.324;2023-04-01T00:30:42;31.52;;;14.40;;
22435;SDS011;11385;50.822;4.324;2023-04-01T00:33:09;8.35;;;2.60;;
22435;SDS011;11385;50.822;4.324;2023-04-01T00:35:37;10.72;;;2.20;;
22435;SDS011;11385;50.822;4.324;2023-04-01T00:38:04;9.70;;;2.27;;
22435;SDS011;11385;50.822;4.324;2023-04-01T00:40:35;7.95;;;2.25;;
22435;SDS011;11385;50.822;4.324;2023-04-01T00:45:34;8.95;;;1.90;;
22435;SDS011;11385;50.822;4.324;2023-04-01T00:48:05;8.80;;;2.20;;
22435;SDS011;11385;50.822;4.324;2023-04-01T00:50:34;4.35;;;1.77;;
22435;SDS011;11385;50.822;4.324;2023-04-01T00:53:02;6.55;;;2.15;;
22435;SDS011;11385;50.822;4.324;2023-04-01T00:55:32;9.90;;;2.20;;
22435;SDS011;11385;50.822;4.324;2023-04-01T00:58:02;6.00;;;2.62;;
22435;SDS011;11385;50.822;4.324;2023-04-01T01:00:31;9.78;;;2.52;;
22435;SDS011;11385;50.822;4.324;2023-04-01T01:02:58;8.83;;;2.62;;
22435;SDS011;11385;50.822;4.324;2023-04-01T01:05:29;10.40;;;2.67;;
22435;SDS011;11385;50.822;4.324;2023-04-01T01:08:15;8.78;;;2.60;;
22435;SDS011;11385;50.822;4.324;2023-04-01T01:10:44;6.22;;;1.60;;
22435;SDS011;11385;50.822;4.324;2023-04-01T01:13:16;6.03;;;1.60;;
22435;SDS011;11385;50.822;4.324;2023-04-01T01:15:47;5.20;;;1.30;;
22435;SDS011;11385;50.822;4.324;2023-04-01T01:18:29;4.35;;;1.40;;
22435;SDS011;11385;50.822;4.324;2023-04-01T01:21:13;7.05;;;2.10;;
22435;SDS011;11385;50.822;4.324;2023-04-01T01:29:10;7.22;;;2.08;;
22435;SDS011;11385;50.822;4.324;2023-04-01T01:34:22;6.47;;;2.33;;
22435;SDS011;11385;50.822;4.324;2023-04-01T01:36:55;4.08;;;1.60;;
22435;SDS011;11385;50.822;4.324;2023-04-01T01:39:25;4.62;;;1.92;;
22435;SDS011;11385;50.822;4.324;2023-04-01T01:41:56;6.05;;;1.80;;
22435;SDS011;11385;50.822;4.324;2023-04-01T01:44:25;5.45;;;1.87;;
22435;SDS011;11385;50.822;4.324;2023-04-01T01:46:54;6.40;;;2.83;;
22435;SDS011;11385;50.822;4.324;2023-04-01T01:49:21;6.25;;;2.45;;
22435;SDS011;11385;50.822;4.324;2023-04-01T01:51:49;7.65;;;3.20;;
22435;SDS011;11385;50.822;4.324;2023-04-01T01:54:17;6.55;;;2.70;;
22435;SDS011;11385;50.822;4.324;2023-04-01T01:56:45;5.97;;;3.30;;
22435;SDS011;11385;50.822;4.324;2023-04-01T01:59:15;13.37;;;4.80;;
22435;SDS011;11385;50.822;4.324;2023-04-01T02:01:45;10.03;;;4.47;;
22435;SDS011;11385;50.822;4.324;2023-04-01T02:04:14;10.78;;;4.85;;
22435;SDS011;11385;50.822;4.324;2023-04-01T02:06:43;11.35;;;5.40;;
22435;SDS011;11385;50.822;4.324;2023-04-01T02:09:14;9.75;;;5.40;;
22435;SDS011;11385;50.822;4.324;2023-04-01T02:11:43;10.72;;;5.53;;
22435;SDS011;11385;50.822;4.324;2023-04-01T02:14:17;10.30;;;4.47;;
22435;SDS011;11385;50.822;4.324;2023-04-01T02:17:04;7.80;;;4.47;;
22435;SDS011;11385;50.822;4.324;2023-04-01T02:19:39;10.05;;;4.30;;
22435;SDS011;11385;50.822;4.324;2023-04-01T02:22:10;10.93;;;3.95;;
22435;SDS011;11385;50.822;4.324;2023-04-01T02:24:40;9.88;;;4.37;;
22435;SDS011;11385;50.822;4.324;2023-04-01T02:27:08;9.03;;;3.98;;
22435;SDS011;11385;50.822;4.324;2023-04-01T02:29:36;12.88;;;4.87;;
22435;SDS011;11385;50.822;4.324;2023-04-01T02:32:04;11.03;;;4.10;;
22435;SDS011;11385;50.822;4.324;2023-04-01T02:34:31;14.73;;;4.75;;
22435;SDS011;11385;50.822;4.324;2023-04-01T02:36:59;11.22;;;4.62;;
22435;SDS011;11385;50.822;4.324;2023-04-01T02:39:26;8.20;;;4.03;;
22435;SDS011;11385;50.822;4.324;2023-04-01T02:41:53;12.40;;;4.28;;
22435;SDS011;11385;50.822;4.324;2023-04-01T02:44:20;16.10;;;6.45;;
22435;SDS011;11385;50.822;4.324;2023-04-01T02:46:47;12.03;;;4.30;;
22435;SDS011;11385;50.822;4.324;2023-04-01T02:49:14;10.48;;;4.42;;
22435;SDS011;11385;50.822;4.324;2023-04-01T02:51:40;9.00;;;3.80;;
22435;SDS011;11385;50.822;4.324;2023-04-01T02:54:07;8.15;;;4.20;;
22435;SDS011;11385;50.822;4.324;2023-04-01T02:56:34;14.40;;;4.75;;
22435;SDS011;11385;50.822;4.324;2023-04-01T02:59:01;12.07;;;4.75;;
22435;SDS011;11385;50.822;4.324;2023-04-01T03:01:27;14.03;;;4.35;;
22435;SDS011;11385;50.822;4.324;2023-04-01T03:03:54;13.43;;;5.40;;
22435;SDS011;11385;50.822;4.324;2023-04-01T03:06:20;15.40;;;5.50;;
22435;SDS011;11385;50.822;4.324;2023-04-01T03:08:47;13.50;;;5.92;;
22435;SDS011;11385;50.822;4.324;2023-04-01T03:11:14;13.85;;;5.47;;
22435;SDS011;11385;50.822;4.324;2023-04-01T03:13:41;13.48;;;6.25;;
22435;SDS011;11385;50.822;4.324;2023-04-01T03:16:07;10.65;;;6.17;;
22435;SDS011;11385;50.822;4.324;2023-04-01T03:18:34;11.80;;;6.00;;
22435;SDS011;11385;50.822;4.324;2023-04-01T03:23:40;11.20;;;6.60;;
22435;SDS011;11385;50.822;4.324;2023-04-01T03:26:07;13.30;;;7.03;;
22435;SDS011;11385;50.822;4.324;2023-04-01T03:28:34;11.28;;;6.70;;
22435;SDS011;11385;50.822;4.324;2023-04-01T03:31:00;16.70;;;6.80;;
22435;SDS011;11385;50.822;4.324;2023-04-01T03:33:27;14.53;;;7.42;;
22435;SDS011;11385;50.822;4.324;2023-04-01T03:35:54;13.10;;;6.95;;
22435;SDS011;11385;50.822;4.324;2023-04-01T03:38:21;13.95;;;7.58;;
22435;SDS011;11385;50.822;4.324;2023-04-01T03:40:47;19.00;;;7.40;;
22435;SDS011;11385;50.822;4.324;2023-04-01T03:43:14;13.05;;;6.78;;
22435;SDS011;11385;50.822;4.324;2023-04-01T03:45:44;17.32;;;7.42;;
22435;SDS011;11385;50.822;4.324;2023-04-01T03:48:13;14.50;;;7.90;;
22435;SDS011;11385;50.822;4.324;2023-04-01T03:50:40;16.05;;;7.62;;
22435;SDS011;11385;50.822;4.324;2023-04-01T03:53:07;19.35;;;7.50;;
22435;SDS011;11385;50.822;4.324;2023-04-01T03:55:35;20.27;;;7.72;;
22435;SDS011;11385;50.822;4.324;2023-04-01T03:58:03;15.88;;;7.22;;
22435;SDS011;11385;50.822;4.324;2023-04-01T04:00:31;14.53;;;8.00;;
22435;SDS011;11385;50.822;4.324;2023-04-01T04:02:58;16.12;;;7.45;;
22435;SDS011;11385;50.822;4.324;2023-04-01T04:05:26;15.48;;;7.08;;
22435;SDS011;11385;50.822;4.324;2023-04-01T04:07:53;18.10;;;7.08;;
22435;SDS011;11385;50.822;4.324;2023-04-01T04:10:20;16.15;;;6.72;;
22435;SDS011;11385;50.822;4.324;2023-04-01T04:12:49;13.60;;;5.62;;
22435;SDS011;11385;50.822;4.324;2023-04-01T04:15:16;10.98;;;6.75;;
22435;SDS011;11385;50.822;4.324;2023-04-01T04:17:43;12.95;;;6.47;;
22435;SDS011;11385;50.822;4.324;2023-04-01T04:20:11;8.28;;;4.97;;
22435;SDS011;11385;50.822;4.324;2023-04-01T04:22:38;14.07;;;6.30;;
22435;SDS011;11385;50.822;4.324;2023-04-01T04:25:05;11.63;;;5.58;;
22435;SDS011;11385;50.822;4.324;2023-04-01T04:27:32;12.18;;;5.30;;
22435;SDS011;11385;50.822;4.324;2023-04-01T04:29:59;12.13;;;4.80;;
22435;SDS011;11385;50.822;4.324;2023-04-01T04:32:26;12.45;;;6.03;;
22435;SDS011;11385;50.822;4.324;2023-04-01T04:34:52;9.28;;;5.40;;
22435;SDS011;11385;50.822;4.324;2023-04-01T04:37:19;10.93;;;5.47;;
22435;SDS011;11385;50.822;4.324;2023-04-01T04:39:46;11.93;;;6.00;;
22435;SDS011;11385;50.822;4.324;2023-04-01T04:42:12;13.55;;;5.50;;
22435;SDS011;11385;50.822;4.324;2023-04-01T04:44:39;10.23;;;5.62;;
22435;SDS011;11385;50.822;4.324;2023-04-01T04:47:06;12.90;;;5.97;;
22435;SDS011;11385;50.822;4.324;2023-04-01T04:49:32;9.63;;;5.22;;
22435;SDS011;11385;50.822;4.324;2023-04-01T04:51:59;9.93;;;5.33;;
22435;SDS011;11385;50.822;4.324;2023-04-01T04:54:26;11.48;;;5.37;;
22435;SDS011;11385;50.822;4.324;2023-04-01T04:56:53;12.70;;;6.00;;
22435;SDS011;11385;50.822;4.324;2023-04-01T04:59:20;8.10;;;4.65;;
22435;SDS011;11385;50.822;4.324;2023-04-01T05:01:47;7.58;;;3.92;;
22435;SDS011;11385;50.822;4.324;2023-04-01T05:04:13;9.33;;;4.47;;
22435;SDS011;11385;50.822;4.324;2023-04-01T05:06:41;8.48;;;4.50;;
22435;SDS011;11385;50.822;4.324;2023-04-01T05:09:09;7.65;;;4.05;;
22435;SDS011;11385;50.822;4.324;2023-04-01T05:11:36;7.67;;;4.30;;
22435;SDS011;11385;50.822;4.324;2023-04-01T05:14:03;10.70;;;4.05;;
22435;SDS011;11385;50.822;4.324;2023-04-01T05:16:29;7.08;;;4.22;;
22435;SDS011;11385;50.822;4.324;2023-04-01T05:18:57;7.72;;;4.40;;
22435;SDS011;11385;50.822;4.324;2023-04-01T05:21:23;10.25;;;4.37;;
22435;SDS011;11385;50.822;4.324;2023-04-01T05:23:50;8.10;;;4.75;;
22435;SDS011;11385;50.822;4.324;2023-04-01T05:26:16;10.08;;;5.08;;
22435;SDS011;11385;50.822;4.324;2023-04-01T05:28:43;9.15;;;5.08;;
22435;SDS011;11385;50.822;4.324;2023-04-01T05:31:10;9.83;;;5.65;;
22435;SDS011;11385;50.822;4.324;2023-04-01T05:33:37;9.38;;;5.42;;
22435;SDS011;11385;50.822;4.324;2023-04-01T05:36:05;11.20;;;6.05;;
22435;SDS011;11385;50.822;4.324;2023-04-01T05:38:33;11.73;;;6.03;;
22435;SDS011;11385;50.822;4.324;2023-04-01T05:41:00;14.53;;;6.22;;
22435;SDS011;11385;50.822;4.324;2023-04-01T05:43:28;10.98;;;7.03;;
22435;SDS011;11385;50.822;4.324;2023-04-01T05:45:55;13.90;;;6.40;;
22435;SDS011;11385;50.822;4.324;2023-04-01T05:48:22;13.55;;;7.35;;
22435;SDS011;11385;50.822;4.324;2023-04-01T05:50:49;16.48;;;8.25;;
22435;SDS011;11385;50.822;4.324;2023-04-01T05:53:16;16.37;;;8.40;;
22435;SDS011;11385;50.822;4.324;2023-04-01T05:55:43;16.62;;;9.25;;
22435;SDS011;11385;50.822;4.324;2023-04-01T05:58:10;14.03;;;8.45;;
22435;SDS011;11385;50.822;4.324;2023-04-01T06:00:36;13.78;;;8.88;;
22435;SDS011;11385;50.822;4.324;2023-04-01T06:03:03;16.27;;;8.18;;
22435;SDS011;11385;50.822;4.324;2023-04-01T06:05:30;16.42;;;9.15;;
22435;SDS011;11385;50.822;4.324;2023-04-01T06:08:09;15.50;;;8.63;;
22435;SDS011;11385;50.822;4.324;2023-04-01T06:11:46;16.20;;;9.05;;
22435;SDS011;11385;50.822;4.324;2023-04-01T06:16:21;14.75;;;8.88;;
22435;SDS011;11385;50.822;4.324;2023-04-01T06:18:52;14.63;;;8.98;;
22435;SDS011;11385;50.822;4.324;2023-04-01T06:25:22;19.40;;;9.20;;
22435;SDS011;11385;50.822;4.324;2023-04-01T06:27:11;16.87;;;8.58;;
22435;SDS011;11385;50.822;4.324;2023-04-01T06:29:44;18.30;;;8.18;;
22435;SDS011;11385;50.822;4.324;2023-04-01T06:32:21;18.10;;;7.92;;
22435;SDS011;11385;50.822;4.324;2023-04-01T06:34:51;17.30;;;9.18;;
22435;SDS011;11385;50.822;4.324;2023-04-01T06:37:40;12.87;;;8.73;;
22435;SDS011;11385;50.822;4.324;2023-04-01T06:40:19;12.68;;;7.67;;
22435;SDS011;11385;50.822;4.324;2023-04-01T06:42:51;16.52;;;8.68;;
22435;SDS011;11385;50.822;4.324;2023-04-01T06:45:34;16.40;;;8.98;;
22435;SDS011;11385;50.822;4.324;2023-04-01T06:48:16;16.67;;;8.78;;
22435;SDS011;11385;50.822;4.324;2023-04-01T06:50:52;20.45;;;9.00;;
22435;SDS011;11385;50.822;4.324;2023-04-01T06:53:46;13.43;;;7.90;;
22435;SDS011;11385;50.822;4.324;2023-04-01T06:56:17;15.58;;;7.90;;
22435;SDS011;11385;50.822;4.324;2023-04-01T06:58:46;15.85;;;8.23;;
22435;SDS011;11385;50.822;4.324;2023-04-01T07:01:18;13.25;;;6.67;;
22435;SDS011;11385;50.822;4.324;2023-04-01T07:03:52;13.32;;;6.67;;
22435;SDS011;11385;50.822;4.324;2023-04-01T07:06:25;15.20;;;7.03;;
22435;SDS011;11385;50.822;4.324;2023-04-01T07:08:58;10.38;;;5.60;;
22435;SDS011;11385;50.822;4.324;2023-04-01T07:11:29;9.18;;;5.17;;
22435;SDS011;11385;50.822;4.324;2023-04-01T07:13:59;10.32;;;4.95;;
22435;SDS011;11385;50.822;4.324;2023-04-01T07:16:32;8.58;;;4.85;;
22435;SDS011;11385;50.822;4.324;2023-04-01T07:19:31;7.90;;;4.83;;
22435;SDS011;11385;50.822;4.324;2023-04-01T07:22:04;9.43;;;5.00;;
22435;SDS011;11385;50.822;4.324;2023-04-01T07:24:34;8.50;;;5.22;;
22435;SDS011;11385;50.822;4.324;2023-04-01T07:27:05;8.83;;;5.50;;
22435;SDS011;11385;50.822;4.324;2023-04-01T07:29:36;9.05;;;5.60;;
22435;SDS011;11385;50.822;4.324;2023-04-01T07:35:00;8.98;;;4.97;;
22435;SDS011;11385;50.822;4.324;2023-04-01T07:37:45;8.50;;;5.63;;
22435;SDS011;11385;50.822;4.324;2023-04-01T07:40:36;8.03;;;5.62;;
22435;SDS011;11385;50.822;4.324;2023-04-01T07:43:17;6.62;;;4.65;;
22435;SDS011;11385;50.822;4.324;2023-04-01T07:45:57;8.90;;;4.40;;
22435;SDS011;11385;50.822;4.324;2023-04-01T07:48:35;7.70;;;4.35;;
22435;SDS011;11385;50.822;4.324;2023-04-01T07:51:15;4.87;;;2.70;;
22435;SDS011;11385;50.822;4.324;2023-04-01T07:53:46;4.05;;;2.35;;
22435;SDS011;11385;50.822;4.324;2023-04-01T07:56:22;4.80;;;2.92;;
22435;SDS011;11385;50.822;4.324;2023-04-01T07:59:28;5.58;;;3.05;;
22435;SDS011;11385;50.822;4.324;2023-04-01T08:01:53;8.95;;;3.37;;
22435;SDS011;11385;50.822;4.324;2023-04-01T08:04:25;8.30;;;3.22;;
22435;SDS011;11385;50.822;4.324;2023-04-01T08:12:27;5.78;;;1.57;;
22435;SDS011;11385;50.822;4.324;2023-04-01T08:15:27;3.87;;;2.08;;
22435;SDS011;11385;50.822;4.324;2023-04-01T08:17:58;2.85;;;1.90;;
22435;SDS011;11385;50.822;4.324;2023-04-01T08:20:48;4.15;;;2.22;;
22435;SDS011;11385;50.822;4.324;2023-04-01T08:23:24;4.35;;;3.17;;
22435;SDS011;11385;50.822;4.324;2023-04-01T08:25:55;4.70;;;2.50;;
22435;SDS011;11385;50.822;4.324;2023-04-01T08:28:44;5.28;;;1.82;;
22435;SDS011;11385;50.822;4.324;2023-04-01T08:31:23;4.03;;;1.72;;
22435;SDS011;11385;50.822;4.324;2023-04-01T08:34:03;3.67;;;2.08;;
22435;SDS011;11385;50.822;4.324;2023-04-01T08:36:36;3.10;;;1.60;;
22435;SDS011;11385;50.822;4.324;2023-04-01T08:39:07;3.62;;;1.30;;
22435;SDS011;11385;50.822;4.324;2023-04-01T08:41:47;3.80;;;1.60;;
22435;SDS011;11385;50.822;4.324;2023-04-01T08:44:34;3.17;;;1.60;;
22435;SDS011;11385;50.822;4.324;2023-04-01T08:47:38;2.65;;;1.40;;
22435;SDS011;11385;50.822;4.324;2023-04-01T08:56:36;4.22;;;1.37;;
22435;SDS011;11385;50.822;4.324;2023-04-01T08:59:08;2.30;;;1.15;;
22435;SDS011;11385;50.822;4.324;2023-04-01T09:05:36;2.02;;;1.30;;
22435;SDS011;11385;50.822;4.324;2023-04-01T09:09:59;3.12;;;1.25;;
22435;SDS011;11385;50.822;4.324;2023-04-01T09:15:20;4.60;;;2.15;;
22435;SDS011;11385;50.822;4.324;2023-04-01T09:21:11;3.30;;;1.92;;
22435;SDS011;11385;50.822;4.324;2023-04-01T09:24:32;3.75;;;2.33;;
22435;SDS011;11385;50.822;4.324;2023-04-01T09:26:31;3.60;;;2.17;;
22435;SDS011;11385;50.822;4.324;2023-04-01T09:29:22;3.40;;;2.35;;
22435;SDS011;11385;50.822;4.324;2023-04-01T09:32:04;5.62;;;2.52;;
22435;SDS011;11385;50.822;4.324;2023-04-01T09:34:51;4.58;;;2.00;;
22435;SDS011;11385;50.822;4.324;2023-04-01T09:37:20;3.22;;;2.12;;
22435;SDS011;11385;50.822;4.324;2023-04-01T09:40:01;4.25;;;1.90;;
22435;SDS011;11385;50.822;4.324;2023-04-01T09:42:38;3.77;;;2.12;;
22435;SDS011;11385;50.822;4.324;2023-04-01T09:45:13;3.10;;;2.17;;
22435;SDS011;11385;50.822;4.324;2023-04-01T09:50:39;7.12;;;2.27;;
22435;SDS011;11385;50.822;4.324;2023-04-01T09:53:19;4.42;;;2.10;;
22435;SDS011;11385;50.822;4.324;2023-04-01T09:55:57;5.70;;;2.40;;
22435;SDS011;11385;50.822;4.324;2023-04-01T09:59:46;3.37;;;1.37;;
22435;SDS011;11385;50.822;4.324;2023-04-01T10:01:30;2.98;;;1.77;;
22435;SDS011;11385;50.822;4.324;2023-04-01T10:08:00;3.77;;;1.70;;
22435;SDS011;11385;50.822;4.324;2023-04-01T10:12:44;2.52;;;1.25;;
22435;SDS011;11385;50.822;4.324;2023-04-01T10:15:46;2.52;;;1.47;;
22435;SDS011;11385;50.822;4.324;2023-04-01T10:23:48;2.30;;;1.40;;
22435;SDS011;11385;50.822;4.324;2023-04-01T10:29:15;4.47;;;1.30;;
22435;SDS011;11385;50.822;4.324;2023-04-01T10:34:51;3.45;;;1.40;;
22435;SDS011;11385;50.822;4.324;2023-04-01T10:40:44;4.47;;;1.35;;
22435;SDS011;11385;50.822;4.324;2023-04-01T10:43:20;3.02;;;1.10;;
22435;SDS011;11385;50.822;4.324;2023-04-01T10:45:54;4.08;;;1.15;;
22435;SDS011;11385;50.822;4.324;2023-04-01T10:48:34;4.50;;;1.37;;
22435;SDS011;11385;50.822;4.324;2023-04-01T10:54:21;2.30;;;1.57;;
22435;SDS011;11385;50.822;4.324;2023-04-01T10:56:56;3.60;;;1.77;;
22435;SDS011;11385;50.822;4.324;2023-04-01T11:02:12;3.77;;;1.77;;
22435;SDS011;11385;50.822;4.324;2023-04-01T11:16:07;5.03;;;2.20;;
22435;SDS011;11385;50.822;4.324;2023-04-01T11:21:57;4.70;;;2.10;;
22435;SDS011;11385;50.822;4.324;2023-04-01T11:24:45;4.00;;;2.55;;
22435;SDS011;11385;50.822;4.324;2023-04-01T11:27:30;5.17;;;2.30;;
22435;SDS011;11385;50.822;4.324;2023-04-01T11:30:21;3.72;;;2.20;;
22435;SDS011;11385;50.822;4.324;2023-04-01T11:33:05;5.65;;;2.10;;
22435;SDS011;11385;50.822;4.324;2023-04-01T11:36:18;4.75;;;1.87;;
22435;SDS011;11385;50.822;4.324;2023-04-01T11:39:08;4.12;;;1.72;;
22435;SDS011;11385;50.822;4.324;2023-04-01T11:44:19;3.58;;;1.45;;
22435;SDS011;11385;50.822;4.324;2023-04-01T11:47:03;3.60;;;1.62;;
22435;SDS011;11385;50.822;4.324;2023-04-01T11:49:46;8.55;;;1.85;;
22435;SDS011;11385;50.822;4.324;2023-04-01T11:55:14;7.95;;;1.87;;
22435;SDS011;11385;50.822;4.324;2023-04-01T12:03:36;4.05;;;1.98;;
22435;SDS011;11385;50.822;4.324;2023-04-01T12:06:25;3.17;;;1.80;;
22435;SDS011;11385;50.822;4.324;2023-04-01T12:11:53;3.33;;;2.20;;
22435;SDS011;11385;50.822;4.324;2023-04-01T12:14:30;4.90;;;1.92;;
22435;SDS011;11385;50.822;4.324;2023-04-01T12:17:02;4.58;;;2.20;;
22435;SDS011;11385;50.822;4.324;2023-04-01T12:19:48;5.30;;;2.65;;
22435;SDS011;11385;50.822;4.324;2023-04-01T12:22:32;5.30;;;2.85;;
22435;SDS011;11385;50.822;4.324;2023-04-01T12:25:11;4.92;;;2.25;;
22435;SDS011;11385;50.822;4.324;2023-04-01T12:28:02;4.25;;;2.47;;
22435;SDS011;11385;50.822;4.324;2023-04-01T12:30:35;3.15;;;1.90;;
22435;SDS011;11385;50.822;4.324;2023-04-01T12:33:16;4.00;;;2.20;;
22435;SDS011;11385;50.822;4.324;2023-04-01T12:35:49;4.33;;;2.42;;
22435;SDS011;11385;50.822;4.324;2023-04-01T12:38:38;6.05;;;2.52;;
22435;SDS011;11385;50.822;4.324;2023-04-01T12:41:26;3.90;;;2.27;;
22435;SDS011;11385;50.822;4.324;2023-04-01T12:44:04;5.67;;;3.05;;
22435;SDS011;11385;50.822;4.324;2023-04-01T12:46:50;5.72;;;2.70;;
22435;SDS011;11385;50.822;4.324;2023-04-01T12:49:27;3.75;;;2.58;;
22435;SDS011;11385;50.822;4.324;2023-04-01T12:51:58;6.78;;;3.37;;
22435;SDS011;11385;50.822;4.324;2023-04-01T12:54:40;4.87;;;3.37;;
22435;SDS011;11385;50.822;4.324;2023-04-01T12:59:46;7.20;;;3.20;;
22435;SDS011;11385;50.822;4.324;2023-04-01T13:02:40;5.45;;;2.72;;
22435;SDS011;11385;50.822;4.324;2023-04-01T13:08:11;4.72;;;2.80;;
22435;SDS011;11385;50.822;4.324;2023-04-01T13:10:47;3.65;;;2.35;;
22435;SDS011;11385;50.822;4.324;2023-04-01T13:13:19;2.47;;;1.77;;
22435;SDS011;11385;50.822;4.324;2023-04-01T13:15:52;6.85;;;2.60;;
22435;SDS011;11385;50.822;4.324;2023-04-01T13:21:38;5.22;;;2.10;;
22435;SDS011;11385;50.822;4.324;2023-04-01T13:25:19;5.78;;;2.30;;
22435;SDS011;11385;50.822;4.324;2023-04-01T13:29:36;3.98;;;2.10;;
22435;SDS011;11385;50.822;4.324;2023-04-01T13:32:17;5.70;;;2.20;;
22435;SDS011;11385;50.822;4.324;2023-04-01T13:34:52;5.50;;;2.17;;
22435;SDS011;11385;50.822;4.324;2023-04-01T13:37:28;3.42;;;1.85;;
22435;SDS011;11385;50.822;4.324;2023-04-01T13:40:02;3.20;;;1.60;;
22435;SDS011;11385;50.822;4.324;2023-04-01T13:42:35;3.67;;;1.85;;
22435;SDS011;11385;50.822;4.324;2023-04-01T13:45:14;4.72;;;1.62;;
22435;SDS011;11385;50.822;4.324;2023-04-01T13:48:50;2.20;;;1.40;;
22435;SDS011;11385;50.822;4.324;2023-04-01T13:50:34;4.87;;;1.45;;
22435;SDS011;11385;50.822;4.324;2023-04-01T13:53:21;3.37;;;1.55;;
22435;SDS011;11385;50.822;4.324;2023-04-01T13:56:00;2.92;;;1.80;;
22435;SDS011;11385;50.822;4.324;2023-04-01T13:58:50;4.75;;;1.80;;
22435;SDS011;11385;50.822;4.324;2023-04-01T14:01:40;2.20;;;1.40;;
22435;SDS011;11385;50.822;4.324;2023-04-01T14:04:20;5.45;;;1.70;;
22435;SDS011;11385;50.822;4.324;2023-04-01T14:07:05;3.27;;;1.72;;
22435;SDS011;11385;50.822;4.324;2023-04-01T14:12:28;3.02;;;1.50;;
22435;SDS011;11385;50.822;4.324;2023-04-01T14:18:39;6.28;;;4.25;;
22435;SDS011;11385;50.822;4.324;2023-04-01T14:21:26;3.98;;;1.50;;
22435;SDS011;11385;50.822;4.324;2023-04-01T14:24:02;3.15;;;1.40;;
22435;SDS011;11385;50.822;4.324;2023-04-01T14:26:53;5.03;;;1.60;;
22435;SDS011;11385;50.822;4.324;2023-04-01T14:29:27;3.52;;;1.62;;
22435;SDS011;11385;50.822;4.324;2023-04-01T14:32:02;3.65;;;1.45;;
22435;SDS011;11385;50.822;4.324;2023-04-01T14:35:02;3.62;;;1.40;;
22435;SDS011;11385;50.822;4.324;2023-04-01T14:37:57;4.15;;;1.20;;
22435;SDS011;11385;50.822;4.324;2023-04-01T14:40:28;2.92;;;1.27;;
22435;SDS011;11385;50.822;4.324;2023-04-01T14:48:50;3.22;;;1.42;;
22435;SDS011;11385;50.822;4.324;2023-04-01T14:51:36;3.02;;;1.40;;
22435;SDS011;11385;50.822;4.324;2023-04-01T14:54:08;3.37;;;1.25;;
22435;SDS011;11385;50.822;4.324;2023-04-01T14:56:47;3.65;;;1.42;;
22435;SDS011;11385;50.822;4.324;2023-04-01T14:59:29;1.85;;;1.10;;
22435;SDS011;11385;50.822;4.324;2023-04-01T15:05:39;2.15;;;1.15;;
22435;SDS011;11385;50.822;4.324;2023-04-01T15:07:39;1.92;;;0.90;;
22435;SDS011;11385;50.822;4.324;2023-04-01T15:10:28;2.75;;;1.10;;
22435;SDS011;11385;50.822;4.324;2023-04-01T15:13:12;2.42;;;1.10;;
22435;SDS011;11385;50.822;4.324;2023-04-01T15:15:49;1.27;;;0.80;;
22435;SDS011;11385;50.822;4.324;2023-04-01T15:18:25;3.75;;;1.50;;
22435;SDS011;11385;50.822;4.324;2023-04-01T15:21:00;3.40;;;1.07;;
22435;SDS011;11385;50.822;4.324;2023-04-01T15:23:34;3.50;;;1.30;;
22435;SDS011;11385;50.822;4.324;2023-04-01T15:26:27;1.20;;;0.75;;
22435;SDS011;11385;50.822;4.324;2023-04-01T15:29:06;2.80;;;1.07;;
22435;SDS011;11385;50.822;4.324;2023-04-01T15:31:39;2.67;;;1.00;;
22435;SDS011;11385;50.822;4.324;2023-04-01T15:41:03;4.42;;;1.07;;
22435;SDS011;11385;50.822;4.324;2023-04-01T15:43:07;1.80;;;1.00;;
22435;SDS011;11385;50.822;4.324;2023-04-01T15:45:41;1.67;;;0.85;;
22435;SDS011;11385;50.822;4.324;2023-04-01T15:48:17;3.15;;;1.10;;
22435;SDS011;11385;50.822;4.324;2023-04-01T15:50:57;1.90;;;0.55;;
22435;SDS011;11385;50.822;4.324;2023-04-01T15:53:34;2.67;;;0.80;;
22435;SDS011;11385;50.822;4.324;2023-04-01T15:56:10;1.40;;;0.80;;
22435;SDS011;11385;50.822;4.324;2023-04-01T15:58:46;2.10;;;0.68;;
22435;SDS011;11385;50.822;4.324;2023-04-01T16:03:54;1.35;;;0.80;;
22435;SDS011;11385;50.822;4.324;2023-04-01T16:06:48;2.00;;;1.05;;
22435;SDS011;11385;50.822;4.324;2023-04-01T16:09:22;1.57;;;0.70;;
22435;SDS011;11385;50.822;4.324;2023-04-01T16:12:33;4.80;;;0.98;;
22435;SDS011;11385;50.822;4.324;2023-04-01T16:14:53;2.58;;;1.20;;
22435;SDS011;11385;50.822;4.324;2023-04-01T16:17:44;2.80;;;0.90;;
22435;SDS011;11385;50.822;4.324;2023-04-01T16:20:34;2.02;;;0.95;;
22435;SDS011;11385;50.822;4.324;2023-04-01T16:23:22;2.90;;;0.95;;
22435;SDS011;11385;50.822;4.324;2023-04-01T16:26:09;3.17;;;1.47;;
22435;SDS011;11385;50.822;4.324;2023-04-01T16:31:37;1.62;;;0.80;;
22435;SDS011;11385;50.822;4.324;2023-04-01T16:36:42;2.62;;;0.98;;
22435;SDS011;11385;50.822;4.324;2023-04-01T16:42:31;1.62;;;1.12;;
22435;SDS011;11385;50.822;4.324;2023-04-01T16:45:40;2.12;;;0.80;;
22435;SDS011;11385;50.822;4.324;2023-04-01T16:47:54;2.20;;;1.12;;
22435;SDS011;11385;50.822;4.324;2023-04-01T16:50:24;3.23;;;1.20;;
22435;SDS011;11385;50.822;4.324;2023-04-01T16:52:58;2.75;;;1.10;;
22435;SDS011;11385;50.822;4.324;2023-04-01T16:55:42;2.58;;;1.00;;
22435;SDS011;11385;50.822;4.324;2023-04-01T16:58:20;2.95;;;1.67;;
22435;SDS011;11385;50.822;4.324;2023-04-01T17:00:51;4.75;;;1.32;;
22435;SDS011;11385;50.822;4.324;2023-04-01T17:03:26;3.02;;;1.10;;
22435;SDS011;11385;50.822;4.324;2023-04-01T17:06:05;9.05;;;4.30;;
22435;SDS011;11385;50.822;4.324;2023-04-01T17:11:31;2.90;;;1.50;;
22435;SDS011;11385;50.822;4.324;2023-04-01T17:14:03;2.83;;;1.55;;
22435;SDS011;11385;50.822;4.324;2023-04-01T17:16:41;5.00;;;1.60;;
22435;SDS011;11385;50.822;4.324;2023-04-01T17:19:13;3.45;;;1.30;;
22435;SDS011;11385;50.822;4.324;2023-04-01T17:21:57;3.62;;;1.62;;
22435;SDS011;11385;50.822;4.324;2023-04-01T17:24:47;2.85;;;1.62;;
22435;SDS011;11385;50.822;4.324;2023-04-01T17:30:10;4.65;;;1.87;;
22435;SDS011;11385;50.822;4.324;2023-04-01T17:32:46;2.83;;;1.70;;
22435;SDS011;11385;50.822;4.324;2023-04-01T17:41:42;4.12;;;2.35;;
22435;SDS011;11385;50.822;4.324;2023-04-01T17:44:22;7.72;;;4.12;;
22435;SDS011;11385;50.822;4.324;2023-04-01T17:47:17;8.00;;;5.03;;
22435;SDS011;11385;50.822;4.324;2023-04-01T17:49:50;5.67;;;2.30;;
22435;SDS011;11385;50.822;4.324;2023-04-01T17:52:26;4.35;;;2.83;;
22435;SDS011;11385;50.822;4.324;2023-04-01T17:55:15;4.10;;;2.65;;
22435;SDS011;11385;50.822;4.324;2023-04-01T18:01:19;12.00;;;5.05;;
22435;SDS011;11385;50.822;4.324;2023-04-01T18:03:20;6.85;;;2.77;;
22435;SDS011;11385;50.822;4.324;2023-04-01T18:05:56;9.93;;;3.70;;
22435;SDS011;11385;50.822;4.324;2023-04-01T18:08:38;6.12;;;2.90;;
22435;SDS011;11385;50.822;4.324;2023-04-01T18:11:13;6.17;;;2.65;;